Time;durP1;ratioP1;P1;durP2;ratioP2;P2;SDS_P1;SDS_P2;PMS_P1;PMS_P2;Temp;Humidity;BMP_temperature;BMP_pressure;BME280_temperature;BME280_humidity;BME280_pressure;Samples;Min_cycle;Max_cycle;Signal;HPM_P1;HPM_P2
2020/05/20 00:00:15;;;;;;;3.3;3;;;;;;;14.9;58.75195;95416.88;;;;
2020/05/20 00:01:16;;;;;;;3.3;3;;;;;;;14.9;58.75195;95416.88;;;;
2020/05/20 00:02:16;;;;;;;3.3;3;;;;;;;14.9;58.75195;95416.88;;;;
2020/05/20 00:03:17;;;;;;;3.3;3;;;;;;;14.9;58.75195;95416.88;;;;
2020/05/20 00:04:17;;;;;;;3.3;3;;;;;;;14.9;58.75195;95416.88;;;;
2020/05/20 00:05:18;;;;;;;3.3;3;;;;;;;14.9;58.75195;95416.88;;;;
2020/05/20 00:06:18;;;;;;;3.3;3;;;;;;;14.9;58.75195;95416.88;;;;
2020/05/20 00:07:19;;;;;;;3.3;3;;;;;;;14.9;58.75195;95416.88;;;;
2020/05/20 00:08:19;;;;;;;3.3;3;;;;;;;14.9;58.75195;95416.88;;;;
2020/05/20 00:09:20;;;;;;;5.3;2.7;;;;;;;15.11;59.13867;95416.11;;;;
2020/05/20 00:10:20;;;;;;;5.3;2.7;;;;;;;15.11;59.13867;95416.11;;;;
2020/05/20 00:11:21;;;;;;;5.3;2.7;;;;;;;15.11;59.13867;95416.11;;;;
2020/05/20 00:12:21;;;;;;;5.3;2.7;;;;;;;15.11;59.13867;95416.11;;;;
2020/05/20 00:13:21;;;;;;;5.3;2.7;;;;;;;15.11;59.13867;95416.11;;;;
2020/05/20 00:14:22;;;;;;;5.3;2.7;;;;;;;15.11;59.13867;95416.11;;;;
2020/05/20 00:15:22;;;;;;;5.3;2.7;;;;;;;15.11;59.13867;95416.11;;;;
2020/05/20 00:16:23;;;;;;;5.3;2.7;;;;;;;15.11;59.13867;95416.11;;;;
2020/05/20 00:17:23;;;;;;;5.3;2.7;;;;;;;15.11;59.13867;95416.11;;;;
2020/05/20 00:18:24;;;;;;;5.3;2.7;;;;;;;15.11;59.13867;95416.11;;;;
2020/05/20 00:19:31;;;;;;;3.400001;2.6;;;;;;;15.28;59.3457;95409.54;;;;
2020/05/20 00:20:35;;;;;;;3.400001;2.6;;;;;;;15.28;59.3457;95409.54;;;;
2020/05/20 00:21:36;;;;;;;3.400001;2.6;;;;;;;15.28;59.3457;95409.54;;;;
2020/05/20 00:22:47;;;;;;;3.400001;2.6;;;;;;;15.28;59.3457;95409.54;;;;
2020/05/20 00:29:12;;;;;;;3.400001;2.6;;;;;;;15.28;59.3457;95409.54;;;;
2020/05/20 00:30:12;;;;;;;3.1;2.6;;;;;;;15.47;59.70996;95410.66;;;;
2020/05/20 00:31:13;;;;;;;3.1;2.6;;;;;;;15.47;59.70996;95410.66;;;;
2020/05/20 00:32:15;;;;;;;3.1;2.6;;;;;;;15.47;59.70996;95410.66;;;;
2020/05/20 00:33:16;;;;;;;3.1;2.6;;;;;;;15.47;59.70996;95410.66;;;;
2020/05/20 00:34:16;;;;;;;3.1;2.6;;;;;;;15.47;59.70996;95410.66;;;;
2020/05/20 00:35:16;;;;;;;3.1;2.6;;;;;;;15.47;59.70996;95410.66;;;;
2020/05/20 00:36:17;;;;;;;3.1;2.6;;;;;;;15.47;59.70996;95410.66;;;;
2020/05/20 00:38:26;;;;;;;3.1;2.6;;;;;;;15.47;59.70996;95410.66;;;;
2020/05/20 00:39:33;;;;;;;3.1;2.6;;;;;;;15.47;59.70996;95410.66;;;;
2020/05/20 00:44:32;;;;;;;2.9;2.6;;;;;;;15.47;59.69727;95406.72;;;;
2020/05/20 00:45:33;;;;;;;2.9;2.6;;;;;;;15.47;59.69727;95406.72;;;;
2020/05/20 00:46:33;;;;;;;2.9;2.6;;;;;;;15.47;59.69727;95406.72;;;;
2020/05/20 00:47:33;;;;;;;2.9;2.6;;;;;;;15.47;59.69727;95406.72;;;;
2020/05/20 00:48:34;;;;;;;2.9;2.6;;;;;;;15.47;59.69727;95406.72;;;;
2020/05/20 00:49:47;;;;;;;2.9;2.6;;;;;;;15.47;59.69727;95406.72;;;;
2020/05/20 00:50:54;;;;;;;3.7;2.6;;;;;;;15.42;60.21289;95408.44;;;;
2020/05/20 00:51:55;;;;;;;3.7;2.6;;;;;;;15.42;60.21289;95408.44;;;;
2020/05/20 00:52:56;;;;;;;3.7;2.6;;;;;;;15.42;60.21289;95408.44;;;;
2020/05/20 00:53:57;;;;;;;3.7;2.6;;;;;;;15.42;60.21289;95408.44;;;;
2020/05/20 01:00:10;;;;;;;3.7;2.6;;;;;;;15.42;60.21289;95408.44;;;;
2020/05/20 01:01:14;;;;;;;3.7;2.6;;;;;;;15.42;60.21289;95408.44;;;;
2020/05/20 01:02:16;;;;;;;4.25;2.75;;;;;;;15.26;60.91797;95418.5;;;;
2020/05/20 01:03:17;;;;;;;4.25;2.75;;;;;;;15.26;60.91797;95418.5;;;;
2020/05/20 01:04:18;;;;;;;4.25;2.75;;;;;;;15.26;60.91797;95418.5;;;;
2020/05/20 01:05:18;;;;;;;4.25;2.75;;;;;;;15.26;60.91797;95418.5;;;;
2020/05/20 01:06:19;;;;;;;4.25;2.75;;;;;;;15.26;60.91797;95418.5;;;;
2020/05/20 01:07:19;;;;;;;4.25;2.75;;;;;;;15.26;60.91797;95418.5;;;;
2020/05/20 01:08:20;;;;;;;4.25;2.75;;;;;;;15.26;60.91797;95418.5;;;;
2020/05/20 01:09:20;;;;;;;4.25;2.75;;;;;;;15.26;60.91797;95418.5;;;;
2020/05/20 01:10:21;;;;;;;4.25;2.75;;;;;;;15.26;60.91797;95418.5;;;;
2020/05/20 01:11:21;;;;;;;4.25;2.75;;;;;;;15.26;60.91797;95418.5;;;;
2020/05/20 01:12:38;;;;;;;4.750001;2.7;;;;;;;15.28;61.10547;95410.9;;;;
2020/05/20 01:18:56;;;;;;;4.750001;2.7;;;;;;;15.28;61.10547;95410.9;;;;
2020/05/20 01:20:21;;;;;;;4.750001;2.7;;;;;;;15.28;61.10547;95410.9;;;;
2020/05/20 01:21:47;;;;;;;4.750001;2.7;;;;;;;15.28;61.10547;95410.9;;;;
2020/05/20 01:23:01;;;;;;;3;2.6;;;;;;;15.21;61.42188;95408.42;;;;
2020/05/20 01:24:02;;;;;;;3;2.6;;;;;;;15.21;61.42188;95408.42;;;;
2020/05/20 01:25:02;;;;;;;3;2.6;;;;;;;15.21;61.42188;95408.42;;;;
2020/05/20 01:26:03;;;;;;;3;2.6;;;;;;;15.21;61.42188;95408.42;;;;
2020/05/20 01:27:03;;;;;;;3;2.6;;;;;;;15.21;61.42188;95408.42;;;;
2020/05/20 01:28:04;;;;;;;3;2.6;;;;;;;15.21;61.42188;95408.42;;;;
2020/05/20 01:29:04;;;;;;;3;2.6;;;;;;;15.21;61.42188;95408.42;;;;
2020/05/20 01:30:05;;;;;;;3;2.6;;;;;;;15.21;61.42188;95408.42;;;;
2020/05/20 01:31:05;;;;;;;3;2.6;;;;;;;15.21;61.42188;95408.42;;;;
2020/05/20 01:32:05;;;;;;;3;2.6;;;;;;;15.21;61.42188;95408.42;;;;
2020/05/20 01:33:06;;;;;;;3.25;2.9;;;;;;;15.25;61.43848;95405.46;;;;
2020/05/20 01:34:06;;;;;;;3.25;2.9;;;;;;;15.25;61.43848;95405.46;;;;
2020/05/20 01:35:07;;;;;;;3.25;2.9;;;;;;;15.25;61.43848;95405.46;;;;
2020/05/20 01:36:07;;;;;;;3.25;2.9;;;;;;;15.25;61.43848;95405.46;;;;
2020/05/20 01:37:08;;;;;;;3.25;2.9;;;;;;;15.25;61.43848;95405.46;;;;
2020/05/20 01:38:08;;;;;;;3.25;2.9;;;;;;;15.25;61.43848;95405.46;;;;
2020/05/20 01:39:09;;;;;;;3.25;2.9;;;;;;;15.25;61.43848;95405.46;;;;
2020/05/20 01:40:10;;;;;;;3.25;2.9;;;;;;;15.25;61.43848;95405.46;;;;
2020/05/20 01:41:10;;;;;;;3.25;2.9;;;;;;;15.25;61.43848;95405.46;;;;
2020/05/20 01:42:10;;;;;;;3.25;2.9;;;;;;;15.25;61.43848;95405.46;;;;
2020/05/20 01:43:11;;;;;;;3.25;2.9;;;;;;;15.25;61.43848;95405.46;;;;
2020/05/20 01:44:11;;;;;;;3.35;3.05;;;;;;;15.27;61.86426;95399.22;;;;
2020/05/20 01:45:12;;;;;;;3.35;3.05;;;;;;;15.27;61.86426;95399.22;;;;
2020/05/20 01:46:12;;;;;;;3.35;3.05;;;;;;;15.27;61.86426;95399.22;;;;
2020/05/20 01:47:12;;;;;;;3.35;3.05;;;;;;;15.27;61.86426;95399.22;;;;
2020/05/20 01:48:13;;;;;;;3.35;3.05;;;;;;;15.27;61.86426;95399.22;;;;
2020/05/20 01:49:13;;;;;;;3.35;3.05;;;;;;;15.27;61.86426;95399.22;;;;
2020/05/20 01:50:14;;;;;;;3.35;3.05;;;;;;;15.27;61.86426;95399.22;;;;
2020/05/20 01:51:14;;;;;;;3.35;3.05;;;;;;;15.27;61.86426;95399.22;;;;
2020/05/20 01:52:15;;;;;;;3.35;3.05;;;;;;;15.27;61.86426;95399.22;;;;
2020/05/20 01:53:15;;;;;;;3.35;3.05;;;;;;;15.27;61.86426;95399.22;;;;
2020/05/20 01:54:15;;;;;;;3.35;3.05;;;;;;;15.27;61.86426;95399.22;;;;
2020/05/20 01:55:16;;;;;;;5.6;2.85;;;;;;;15.36;61.69336;95392.6;;;;
2020/05/20 01:56:16;;;;;;;5.6;2.85;;;;;;;15.36;61.69336;95392.6;;;;
2020/05/20 01:57:17;;;;;;;5.6;2.85;;;;;;;15.36;61.69336;95392.6;;;;
2020/05/20 01:58:17;;;;;;;5.6;2.85;;;;;;;15.36;61.69336;95392.6;;;;
2020/05/20 01:59:18;;;;;;;5.6;2.85;;;;;;;15.36;61.69336;95392.6;;;;
2020/05/20 02:00:18;;;;;;;5.6;2.85;;;;;;;15.36;61.69336;95392.6;;;;
2020/05/20 02:01:19;;;;;;;5.6;2.85;;;;;;;15.36;61.69336;95392.6;;;;
2020/05/20 02:02:19;;;;;;;5.6;2.85;;;;;;;15.36;61.69336;95392.6;;;;
2020/05/20 02:03:20;;;;;;;5.6;2.85;;;;;;;15.36;61.69336;95392.6;;;;
2020/05/20 02:04:22;;;;;;;5.6;2.85;;;;;;;15.36;61.69336;95392.6;;;;
2020/05/20 02:05:25;;;;;;;3.05;2.8;;;;;;;15.23;61.57715;95383.54;;;;
2020/05/20 02:06:26;;;;;;;3.05;2.8;;;;;;;15.23;61.57715;95383.54;;;;
2020/05/20 02:07:31;;;;;;;3.05;2.8;;;;;;;15.23;61.57715;95383.54;;;;
2020/05/20 02:08:41;;;;;;;3.05;2.8;;;;;;;15.23;61.57715;95383.54;;;;
2020/05/20 02:09:43;;;;;;;3.05;2.8;;;;;;;15.23;61.57715;95383.54;;;;
2020/05/20 02:10:43;;;;;;;3.05;2.8;;;;;;;15.23;61.57715;95383.54;;;;
2020/05/20 02:11:44;;;;;;;3.05;2.8;;;;;;;15.23;61.57715;95383.54;;;;
2020/05/20 02:12:44;;;;;;;3.05;2.8;;;;;;;15.23;61.57715;95383.54;;;;
2020/05/20 02:13:45;;;;;;;3.05;2.8;;;;;;;15.23;61.57715;95383.54;;;;
2020/05/20 02:14:45;;;;;;;3.05;2.8;;;;;;;15.23;61.57715;95383.54;;;;
2020/05/20 02:15:46;;;;;;;3.7;2.85;;;;;;;15.09;61.74121;95381.55;;;;
2020/05/20 02:16:46;;;;;;;3.7;2.85;;;;;;;15.09;61.74121;95381.55;;;;
2020/05/20 02:18:36;;;;;;;3.7;2.85;;;;;;;15.09;61.74121;95381.55;;;;
2020/05/20 02:24:50;;;;;;;3.7;2.85;;;;;;;15.09;61.74121;95381.55;;;;
2020/05/20 02:25:50;;;;;;;3.7;2.85;;;;;;;15.09;61.74121;95381.55;;;;
2020/05/20 02:26:51;;;;;;;3.45;3.15;;;;;;;14.92;62.21777;95373.53;;;;
2020/05/20 02:27:51;;;;;;;3.45;3.15;;;;;;;14.92;62.21777;95373.53;;;;
2020/05/20 02:28:51;;;;;;;3.45;3.15;;;;;;;14.92;62.21777;95373.53;;;;
2020/05/20 02:29:52;;;;;;;3.45;3.15;;;;;;;14.92;62.21777;95373.53;;;;
2020/05/20 02:30:52;;;;;;;3.45;3.15;;;;;;;14.92;62.21777;95373.53;;;;
2020/05/20 02:31:53;;;;;;;3.45;3.15;;;;;;;14.92;62.21777;95373.53;;;;
2020/05/20 02:32:53;;;;;;;3.45;3.15;;;;;;;14.92;62.21777;95373.53;;;;
2020/05/20 02:33:54;;;;;;;3.45;3.15;;;;;;;14.92;62.21777;95373.53;;;;
2020/05/20 02:34:54;;;;;;;3.45;3.15;;;;;;;14.92;62.21777;95373.53;;;;
2020/05/20 02:35:54;;;;;;;3.45;3.15;;;;;;;14.92;62.21777;95373.53;;;;
2020/05/20 02:36:57;;;;;;;5.45;3.45;;;;;;;14.86;62.31738;95366.82;;;;
2020/05/20 02:37:59;;;;;;;5.45;3.45;;;;;;;14.86;62.31738;95366.82;;;;
2020/05/20 02:39:02;;;;;;;5.45;3.45;;;;;;;14.86;62.31738;95366.82;;;;
2020/05/20 02:40:04;;;;;;;5.45;3.45;;;;;;;14.86;62.31738;95366.82;;;;
2020/05/20 02:41:05;;;;;;;5.45;3.45;;;;;;;14.86;62.31738;95366.82;;;;
2020/05/20 02:42:05;;;;;;;5.45;3.45;;;;;;;14.86;62.31738;95366.82;;;;
2020/05/20 02:44:42;;;;;;;5.45;3.45;;;;;;;14.86;62.31738;95366.82;;;;
2020/05/20 02:45:42;;;;;;;5.45;3.45;;;;;;;14.86;62.31738;95366.82;;;;
2020/05/20 02:46:43;;;;;;;5.45;3.45;;;;;;;14.86;62.31738;95366.82;;;;
2020/05/20 02:47:43;;;;;;;4.5;3.6;;;;;;;14.77;62.39063;95371.24;;;;
2020/05/20 02:48:44;;;;;;;4.5;3.6;;;;;;;14.77;62.39063;95371.24;;;;
2020/05/20 02:49:44;;;;;;;4.5;3.6;;;;;;;14.77;62.39063;95371.24;;;;
2020/05/20 02:50:45;;;;;;;4.5;3.6;;;;;;;14.77;62.39063;95371.24;;;;
2020/05/20 02:51:46;;;;;;;4.5;3.6;;;;;;;14.77;62.39063;95371.24;;;;
2020/05/20 02:52:46;;;;;;;4.5;3.6;;;;;;;14.77;62.39063;95371.24;;;;
2020/05/20 02:53:47;;;;;;;4.5;3.6;;;;;;;14.77;62.39063;95371.24;;;;
2020/05/20 02:54:47;;;;;;;4.5;3.6;;;;;;;14.77;62.39063;95371.24;;;;
2020/05/20 02:55:47;;;;;;;4.5;3.6;;;;;;;14.77;62.39063;95371.24;;;;
2020/05/20 02:56:48;;;;;;;4.5;3.6;;;;;;;14.77;62.39063;95371.24;;;;
2020/05/20 02:57:48;;;;;;;4.5;3.6;;;;;;;14.77;62.39063;95371.24;;;;
2020/05/20 02:58:49;;;;;;;3.5;3.25;;;;;;;14.78;62.4043;95381.85;;;;
2020/05/20 02:59:49;;;;;;;3.5;3.25;;;;;;;14.78;62.4043;95381.85;;;;
2020/05/20 03:00:49;;;;;;;3.5;3.25;;;;;;;14.78;62.4043;95381.85;;;;
2020/05/20 03:01:50;;;;;;;3.5;3.25;;;;;;;14.78;62.4043;95381.85;;;;
2020/05/20 03:02:50;;;;;;;3.5;3.25;;;;;;;14.78;62.4043;95381.85;;;;
2020/05/20 03:03:51;;;;;;;3.5;3.25;;;;;;;14.78;62.4043;95381.85;;;;
2020/05/20 03:04:51;;;;;;;3.5;3.25;;;;;;;14.78;62.4043;95381.85;;;;
2020/05/20 03:05:52;;;;;;;3.5;3.25;;;;;;;14.78;62.4043;95381.85;;;;
2020/05/20 03:06:52;;;;;;;3.5;3.25;;;;;;;14.78;62.4043;95381.85;;;;
2020/05/20 03:07:53;;;;;;;3.5;3.25;;;;;;;14.78;62.4043;95381.85;;;;
2020/05/20 03:08:53;;;;;;;3.3;3;;;;;;;14.8;62.61328;95379.69;;;;
2020/05/20 03:09:54;;;;;;;3.3;3;;;;;;;14.8;62.61328;95379.69;;;;
2020/05/20 03:10:55;;;;;;;3.3;3;;;;;;;14.8;62.61328;95379.69;;;;
2020/05/20 03:11:55;;;;;;;3.3;3;;;;;;;14.8;62.61328;95379.69;;;;
2020/05/20 03:12:56;;;;;;;3.3;3;;;;;;;14.8;62.61328;95379.69;;;;
2020/05/20 03:13:56;;;;;;;3.3;3;;;;;;;14.8;62.61328;95379.69;;;;
2020/05/20 03:14:56;;;;;;;3.3;3;;;;;;;14.8;62.61328;95379.69;;;;
2020/05/20 03:15:57;;;;;;;3.3;3;;;;;;;14.8;62.61328;95379.69;;;;
2020/05/20 03:17:05;;;;;;;3.3;3;;;;;;;14.8;62.61328;95379.69;;;;
2020/05/20 03:18:07;;;;;;;3.3;3;;;;;;;14.8;62.61328;95379.69;;;;
2020/05/20 03:19:40;;;;;;;3.3;3;;;;;;;14.8;62.61328;95379.69;;;;
2020/05/20 03:21:54;;;;;;;3.8;3.05;;;;;;;14.87;62.78613;95376.62;;;;
2020/05/20 03:23:47;;;;;;;3.8;3.05;;;;;;;14.87;62.78613;95376.62;;;;
2020/05/20 03:24:55;;;;;;;3.8;3.05;;;;;;;14.87;62.78613;95376.62;;;;
2020/05/20 03:26:18;;;;;;;3.8;3.05;;;;;;;14.87;62.78613;95376.62;;;;
2020/05/20 03:27:25;;;;;;;3.8;3.05;;;;;;;14.87;62.78613;95376.62;;;;
2020/05/20 03:28:32;;;;;;;3.8;3.05;;;;;;;14.87;62.78613;95376.62;;;;
2020/05/20 03:35:13;;;;;;;4.3;3.2;;;;;;;14.82;62.98438;95387.44;;;;
2020/05/20 03:36:26;;;;;;;4.3;3.2;;;;;;;14.82;62.98438;95387.44;;;;
2020/05/20 03:37:34;;;;;;;4.3;3.2;;;;;;;14.82;62.98438;95387.44;;;;
2020/05/20 03:38:48;;;;;;;4.3;3.2;;;;;;;14.82;62.98438;95387.44;;;;
2020/05/20 03:39:58;;;;;;;4.3;3.2;;;;;;;14.82;62.98438;95387.44;;;;
2020/05/20 03:41:10;;;;;;;5.099999;3.5;;;;;;;14.86;63.20508;95390.45;;;;
2020/05/20 03:42:40;;;;;;;5.099999;3.5;;;;;;;14.86;63.20508;95390.45;;;;
2020/05/20 03:43:49;;;;;;;5.099999;3.5;;;;;;;14.86;63.20508;95390.45;;;;
2020/05/20 03:45:00;;;;;;;5.099999;3.5;;;;;;;14.86;63.20508;95390.45;;;;
2020/05/20 03:51:44;;;;;;;3.75;3.45;;;;;;;14.83;63.36523;95396.84;;;;
2020/05/20 03:53:51;;;;;;;3.75;3.45;;;;;;;14.83;63.36523;95396.84;;;;
2020/05/20 04:00:40;;;;;;;3.75;3.45;;;;;;;14.83;63.36523;95396.84;;;;
2020/05/20 04:17:27;;;;;;;4.8;3.85;;;;;;;14.91;63.63574;95408.61;;;;
2020/05/20 04:20:42;;;;;;;4.8;3.85;;;;;;;14.91;63.63574;95408.61;;;;
2020/05/20 04:21:43;;;;;;;4.8;3.85;;;;;;;14.91;63.63574;95408.61;;;;
2020/05/20 04:22:46;;;;;;;4.8;3.85;;;;;;;14.91;63.63574;95408.61;;;;
2020/05/20 04:23:53;;;;;;;5.6;3.95;;;;;;;15.03;63.54492;95412.91;;;;
2020/05/20 04:24:55;;;;;;;5.6;3.95;;;;;;;15.03;63.54492;95412.91;;;;
2020/05/20 04:26:03;;;;;;;5.6;3.95;;;;;;;15.03;63.54492;95412.91;;;;
2020/05/20 04:27:14;;;;;;;5.6;3.95;;;;;;;15.03;63.54492;95412.91;;;;
2020/05/20 04:28:22;;;;;;;5.6;3.95;;;;;;;15.03;63.54492;95412.91;;;;
2020/05/20 04:29:30;;;;;;;5.6;3.95;;;;;;;15.03;63.54492;95412.91;;;;
2020/05/20 04:30:41;;;;;;;5.6;3.95;;;;;;;15.03;63.54492;95412.91;;;;
2020/05/20 04:31:57;;;;;;;5.6;3.95;;;;;;;15.03;63.54492;95412.91;;;;
2020/05/20 04:33:50;;;;;;;5.6;3.95;;;;;;;15.03;63.54492;95412.91;;;;
2020/05/20 04:35:04;;;;;;;4.05;3.55;;;;;;;15.06;63.6582;95416.04;;;;
2020/05/20 04:36:23;;;;;;;4.05;3.55;;;;;;;15.06;63.6582;95416.04;;;;
2020/05/20 04:37:32;;;;;;;4.05;3.55;;;;;;;15.06;63.6582;95416.04;;;;
2020/05/20 04:39:15;;;;;;;4.05;3.55;;;;;;;15.06;63.6582;95416.04;;;;
2020/05/20 04:40:24;;;;;;;4.05;3.55;;;;;;;15.06;63.6582;95416.04;;;;
2020/05/20 04:41:34;;;;;;;4.05;3.55;;;;;;;15.06;63.6582;95416.04;;;;
2020/05/20 04:42:44;;;;;;;4.05;3.55;;;;;;;15.06;63.6582;95416.04;;;;
2020/05/20 04:43:54;;;;;;;4.05;3.55;;;;;;;15.06;63.6582;95416.04;;;;
2020/05/20 04:45:05;;;;;;;4.1;3.7;;;;;;;15.17;63.83691;95427.7;;;;
2020/05/20 04:47:25;;;;;;;4.1;3.7;;;;;;;15.17;63.83691;95427.7;;;;
2020/05/20 04:53:48;;;;;;;4.1;3.7;;;;;;;15.17;63.83691;95427.7;;;;
2020/05/20 05:05:30;;;;;;;4.5;3.75;;;;;;;15.23;64.05078;95432.1;;;;
2020/05/20 05:21:23;;;;;;;6.000001;4.45;;;;;;;15.46;64.43164;95449.02;;;;
2020/05/20 05:22:48;;;;;;;6.000001;4.45;;;;;;;15.46;64.43164;95449.02;;;;
2020/05/20 05:25:05;;;;;;;6.000001;4.45;;;;;;;15.46;64.43164;95449.02;;;;
2020/05/20 05:26:22;;;;;;;6.000001;4.45;;;;;;;15.46;64.43164;95449.02;;;;
2020/05/20 05:53:47;;;;;;;5.400001;4.849999;;;;;;;16;64.27246;95484.47;;;;
2020/05/20 05:55:00;;;;;;;5.400001;4.849999;;;;;;;16;64.27246;95484.47;;;;
2020/05/20 05:57:18;;;;;;;5.400001;4.849999;;;;;;;16;64.27246;95484.47;;;;
2020/05/20 06:03:38;;;;;;;5.950001;5.349999;;;;;;;16.28;63.89844;95470.58;;;;
2020/05/20 06:05:13;;;;;;;5.950001;5.349999;;;;;;;16.28;63.89844;95470.58;;;;
2020/05/20 06:06:42;;;;;;;5.950001;5.349999;;;;;;;16.28;63.89844;95470.58;;;;
2020/05/20 06:08:03;;;;;;;5.950001;5.349999;;;;;;;16.28;63.89844;95470.58;;;;
2020/05/20 06:09:17;;;;;;;7.349998;5.349999;;;;;;;16.87;63.22168;95468.57;;;;
2020/05/20 06:21:48;;;;;;;6.499999;5.8;;;;;;;17.24;62.70801;95472.44;;;;
2020/05/20 06:24:33;;;;;;;6.499999;5.8;;;;;;;17.24;62.70801;95472.44;;;;
2020/05/20 06:32:14;;;;;;;8;5.4;;;;;;;17.81;61.91602;95482.11;;;;
2020/05/20 06:34:16;;;;;;;8;5.4;;;;;;;17.81;61.91602;95482.11;;;;
2020/05/20 06:40:40;;;;;;;8;5.4;;;;;;;17.81;61.91602;95482.11;;;;
2020/05/20 06:41:51;;;;;;;6.249999;5.25;;;;;;;18.11;60.95215;95483.81;;;;
2020/05/20 06:44:01;;;;;;;6.249999;5.25;;;;;;;18.11;60.95215;95483.81;;;;
2020/05/20 06:45:10;;;;;;;6.249999;5.25;;;;;;;18.11;60.95215;95483.81;;;;
2020/05/20 06:46:24;;;;;;;6.249999;5.25;;;;;;;18.11;60.95215;95483.81;;;;
2020/05/20 06:47:52;;;;;;;6.249999;5.25;;;;;;;18.11;60.95215;95483.81;;;;
2020/05/20 07:05:52;;;;;;;6.050001;5.45;;;;;;;18.78;60.14551;95493.44;;;;
2020/05/20 07:18:13;;;;;;;6.5;5.3;;;;;;;19.62;58.5918;95490.27;;;;
2020/05/20 07:19:35;;;;;;;6.5;5.3;;;;;;;19.62;58.5918;95490.27;;;;
2020/05/20 07:21:20;;;;;;;6.5;5.3;;;;;;;19.62;58.5918;95490.27;;;;
2020/05/20 07:23:13;;;;;;;6.5;5.3;;;;;;;19.62;58.5918;95490.27;;;;
2020/05/20 07:25:31;;;;;;;7.5;5.749999;;;;;;;20.81;56.61328;95495.72;;;;
2020/05/20 07:27:18;;;;;;;7.5;5.749999;;;;;;;20.81;56.61328;95495.72;;;;
2020/05/20 07:28:45;;;;;;;7.5;5.749999;;;;;;;20.81;56.61328;95495.72;;;;
2020/05/20 07:35:58;;;;;;;5.65;5.050001;;;;;;;21.86;55.32227;95489.2;;;;
2020/05/20 07:37:27;;;;;;;5.65;5.050001;;;;;;;21.86;55.32227;95489.2;;;;
2020/05/20 07:47:11;;;;;;;5.600001;5;;;;;;;22.04;54.7373;95488.33;;;;
2020/05/20 07:48:30;;;;;;;5.600001;5;;;;;;;22.04;54.7373;95488.33;;;;
2020/05/20 07:49:45;;;;;;;5.600001;5;;;;;;;22.04;54.7373;95488.33;;;;
2020/05/20 07:50:58;;;;;;;5.600001;5;;;;;;;22.04;54.7373;95488.33;;;;
2020/05/20 07:52:29;;;;;;;5.600001;5;;;;;;;22.04;54.7373;95488.33;;;;
2020/05/20 07:54:20;;;;;;;5.600001;5;;;;;;;22.04;54.7373;95488.33;;;;
2020/05/20 07:55:43;;;;;;;5.149999;4.649999;;;;;;;21.86;54.57227;95503.91;;;;
2020/05/20 07:57:21;;;;;;;5.149999;4.649999;;;;;;;21.86;54.57227;95503.91;;;;
2020/05/20 07:58:32;;;;;;;5.149999;4.649999;;;;;;;21.86;54.57227;95503.91;;;;
2020/05/20 07:59:45;;;;;;;5.149999;4.649999;;;;;;;21.86;54.57227;95503.91;;;;
2020/05/20 08:16:35;;;;;;;7.299999;4.85;;;;;;;21.69;54.57324;95503.05;;;;
2020/05/20 08:28:34;;;;;;;6.15;5.45;;;;;;;22.13;53.27734;95508.11;;;;
2020/05/20 08:40:11;;;;;;;7.599999;6.249999;;;;;;;22.28;52.52148;95522;;;;
2020/05/20 08:41:23;;;;;;;7.599999;6.249999;;;;;;;22.28;52.52148;95522;;;;
2020/05/20 08:47:41;;;;;;;7.599999;6.249999;;;;;;;22.28;52.52148;95522;;;;
2020/05/20 08:48:43;;;;;;;10.1;5.9;;;;;;;22.26;51.99805;95528.5;;;;
2020/05/20 08:49:43;;;;;;;10.1;5.9;;;;;;;22.26;51.99805;95528.5;;;;
2020/05/20 08:50:43;;;;;;;10.1;5.9;;;;;;;22.26;51.99805;95528.5;;;;
2020/05/20 08:51:44;;;;;;;10.1;5.9;;;;;;;22.26;51.99805;95528.5;;;;
2020/05/20 08:52:44;;;;;;;10.1;5.9;;;;;;;22.26;51.99805;95528.5;;;;
2020/05/20 08:53:45;;;;;;;10.1;5.9;;;;;;;22.26;51.99805;95528.5;;;;
2020/05/20 08:54:45;;;;;;;10.1;5.9;;;;;;;22.26;51.99805;95528.5;;;;
2020/05/20 08:55:46;;;;;;;10.1;5.9;;;;;;;22.26;51.99805;95528.5;;;;
2020/05/20 08:56:46;;;;;;;10.1;5.9;;;;;;;22.26;51.99805;95528.5;;;;
2020/05/20 08:57:47;;;;;;;10.1;5.9;;;;;;;22.26;51.99805;95528.5;;;;
2020/05/20 08:58:49;;;;;;;7.55;6;;;;;;;22.53;51.56543;95527.58;;;;
2020/05/20 08:59:49;;;;;;;7.55;6;;;;;;;22.53;51.56543;95527.58;;;;
2020/05/20 09:00:50;;;;;;;7.55;6;;;;;;;22.53;51.56543;95527.58;;;;
2020/05/20 09:01:50;;;;;;;7.55;6;;;;;;;22.53;51.56543;95527.58;;;;
2020/05/20 09:02:51;;;;;;;7.55;6;;;;;;;22.53;51.56543;95527.58;;;;
2020/05/20 09:03:51;;;;;;;7.55;6;;;;;;;22.53;51.56543;95527.58;;;;
2020/05/20 09:04:52;;;;;;;7.55;6;;;;;;;22.53;51.56543;95527.58;;;;
2020/05/20 09:05:52;;;;;;;7.55;6;;;;;;;22.53;51.56543;95527.58;;;;
2020/05/20 09:06:52;;;;;;;7.55;6;;;;;;;22.53;51.56543;95527.58;;;;
2020/05/20 09:07:53;;;;;;;7.55;6;;;;;;;22.53;51.56543;95527.58;;;;
2020/05/20 09:08:54;;;;;;;7.55;6;;;;;;;22.53;51.56543;95527.58;;;;
2020/05/20 09:09:56;;;;;;;10.25;7.1;;;;;;;22.98;51.16309;95538.26;;;;
2020/05/20 09:11:00;;;;;;;10.25;7.1;;;;;;;22.98;51.16309;95538.26;;;;
2020/05/20 09:22:28;;;;;;;10.2;7.15;;;;;;;23.71;50.18066;95543.38;;;;
2020/05/20 09:24:26;;;;;;;10.2;7.15;;;;;;;23.71;50.18066;95543.38;;;;
2020/05/20 09:25:35;;;;;;;10.2;7.15;;;;;;;23.71;50.18066;95543.38;;;;
2020/05/20 09:26:43;;;;;;;10.2;7.15;;;;;;;23.71;50.18066;95543.38;;;;
2020/05/20 09:28:04;;;;;;;10.2;7.15;;;;;;;23.71;50.18066;95543.38;;;;
2020/05/20 09:29:05;;;;;;;10.2;7.15;;;;;;;23.71;50.18066;95543.38;;;;
2020/05/20 09:30:06;;;;;;;10.2;7.15;;;;;;;23.71;50.18066;95543.38;;;;
2020/05/20 09:31:06;;;;;;;9.9;6.75;;;;;;;24.13;49.57031;95549.56;;;;
2020/05/20 09:32:07;;;;;;;9.9;6.75;;;;;;;24.13;49.57031;95549.56;;;;
2020/05/20 09:33:07;;;;;;;9.9;6.75;;;;;;;24.13;49.57031;95549.56;;;;
2020/05/20 09:34:08;;;;;;;9.9;6.75;;;;;;;24.13;49.57031;95549.56;;;;
2020/05/20 09:35:08;;;;;;;9.9;6.75;;;;;;;24.13;49.57031;95549.56;;;;
2020/05/20 09:36:23;;;;;;;9.9;6.75;;;;;;;24.13;49.57031;95549.56;;;;
2020/05/20 09:37:40;;;;;;;9.9;6.75;;;;;;;24.13;49.57031;95549.56;;;;
2020/05/20 09:44:06;;;;;;;9.45;7.2;;;;;;;24.12;49.27051;95564.5;;;;
2020/05/20 09:45:20;;;;;;;9.45;7.2;;;;;;;24.12;49.27051;95564.5;;;;
2020/05/20 09:56:52;;;;;;;9.449998;6.9;;;;;;;23.59;48.93457;95564.36;;;;
2020/05/20 09:58:00;;;;;;;9.449998;6.9;;;;;;;23.59;48.93457;95564.36;;;;
2020/05/20 09:59:07;;;;;;;9.449998;6.9;;;;;;;23.59;48.93457;95564.36;;;;
2020/05/20 10:00:12;;;;;;;9.449998;6.9;;;;;;;23.59;48.93457;95564.36;;;;
2020/05/20 10:01:14;;;;;;;9.449998;6.9;;;;;;;23.59;48.93457;95564.36;;;;
2020/05/20 10:02:15;;;;;;;9.449998;6.9;;;;;;;23.59;48.93457;95564.36;;;;
2020/05/20 10:03:16;;;;;;;10.55;6.45;;;;;;;23.22;49.39258;95567.78;;;;
2020/05/20 10:04:16;;;;;;;10.55;6.45;;;;;;;23.22;49.39258;95567.78;;;;
2020/05/20 10:05:17;;;;;;;10.55;6.45;;;;;;;23.22;49.39258;95567.78;;;;
2020/05/20 10:06:18;;;;;;;10.55;6.45;;;;;;;23.22;49.39258;95567.78;;;;
2020/05/20 10:07:19;;;;;;;10.55;6.45;;;;;;;23.22;49.39258;95567.78;;;;
2020/05/20 10:08:19;;;;;;;10.55;6.45;;;;;;;23.22;49.39258;95567.78;;;;
2020/05/20 10:09:20;;;;;;;10.55;6.45;;;;;;;23.22;49.39258;95567.78;;;;
2020/05/20 10:10:20;;;;;;;10.55;6.45;;;;;;;23.22;49.39258;95567.78;;;;
2020/05/20 10:11:21;;;;;;;10.55;6.45;;;;;;;23.22;49.39258;95567.78;;;;
2020/05/20 10:12:21;;;;;;;10.55;6.45;;;;;;;23.22;49.39258;95567.78;;;;
2020/05/20 10:13:22;;;;;;;10.4;7.199999;;;;;;;23.21;49.16992;95578.96;;;;
2020/05/20 10:14:22;;;;;;;10.4;7.199999;;;;;;;23.21;49.16992;95578.96;;;;
2020/05/20 10:15:22;;;;;;;10.4;7.199999;;;;;;;23.21;49.16992;95578.96;;;;
2020/05/20 10:16:23;;;;;;;10.4;7.199999;;;;;;;23.21;49.16992;95578.96;;;;
2020/05/20 10:17:24;;;;;;;10.4;7.199999;;;;;;;23.21;49.16992;95578.96;;;;
2020/05/20 10:18:24;;;;;;;10.4;7.199999;;;;;;;23.21;49.16992;95578.96;;;;
2020/05/20 10:19:25;;;;;;;10.4;7.199999;;;;;;;23.21;49.16992;95578.96;;;;
2020/05/20 10:20:25;;;;;;;10.4;7.199999;;;;;;;23.21;49.16992;95578.96;;;;
2020/05/20 10:21:25;;;;;;;10.4;7.199999;;;;;;;23.21;49.16992;95578.96;;;;
2020/05/20 10:22:26;;;;;;;10.4;7.199999;;;;;;;23.21;49.16992;95578.96;;;;
2020/05/20 10:23:26;;;;;;;10.4;7.199999;;;;;;;23.21;49.16992;95578.96;;;;
2020/05/20 10:24:27;;;;;;;9.200001;7.1;;;;;;;24.13;47.99219;95581.7;;;;
2020/05/20 10:25:27;;;;;;;9.200001;7.1;;;;;;;24.13;47.99219;95581.7;;;;
2020/05/20 10:26:27;;;;;;;9.55;7.099999;;;;;;;24.46;46.90332;95578.53;;;;
2020/05/20 10:27:28;;;;;;;9.55;7.099999;;;;;;;24.46;46.90332;95578.53;;;;
2020/05/20 10:28:28;;;;;;;9.55;7.099999;;;;;;;24.46;46.90332;95578.53;;;;
2020/05/20 10:29:29;;;;;;;9.400001;6.849999;;;;;;;24.8;46.41504;95580.53;;;;
2020/05/20 10:30:29;;;;;;;9.400001;6.849999;;;;;;;24.8;46.41504;95580.53;;;;
2020/05/20 10:31:30;;;;;;;8.85;7.15;;;;;;;25.13;45.88086;95580.4;;;;
2020/05/20 10:32:30;;;;;;;8.85;7.15;;;;;;;25.13;45.88086;95580.4;;;;
2020/05/20 10:33:31;;;;;;;8.85;7.15;;;;;;;25.13;45.88086;95580.4;;;;
2020/05/20 10:34:31;;;;;;;9.400002;6.8;;;;;;;25.49;45.28027;95577.43;;;;
2020/05/20 10:35:31;;;;;;;9.400002;6.8;;;;;;;25.49;45.28027;95577.43;;;;
2020/05/20 10:36:32;;;;;;;9.400002;6.8;;;;;;;25.49;45.28027;95577.43;;;;
2020/05/20 10:37:32;;;;;;;7.100001;6.1;;;;;;;25.85;44.32324;95582.53;;;;
2020/05/20 10:38:33;;;;;;;7.100001;6.1;;;;;;;25.85;44.32324;95582.53;;;;
2020/05/20 10:39:33;;;;;;;6.95;6.250001;;;;;;;26.14;43.8916;95575.95;;;;
2020/05/20 10:40:34;;;;;;;6.95;6.250001;;;;;;;26.14;43.8916;95575.95;;;;
2020/05/20 10:41:34;;;;;;;6.95;6.250001;;;;;;;26.14;43.8916;95575.95;;;;